Terminal Aerodrome Forecast
Issued by NWS

Home | Current Version | Previous Version | Text Only | Print | Product List | Glossary On
Versions: 1 2 3 4 5 6 7 8 9 10 11 12 13 14 15 16 17
000
FTUS46 KSEW 281120
TAFOLM
TAF
KOLM 281120Z 2812/2912 VRB03KT P6SM BKN035
     FM281800 23005KT P6SM BKN040
     FM282000 25006KT P6SM SCT045
     FM282200 31006KT P6SM SCT045
     FM290500 20004KT P6SM FEW040 SCT200=

USA.gov is the U.S. government's official web portal to all federal, state and local government web resources and services.